Time;durP1;ratioP1;P1;durP2;ratioP2;P2;SDS_P1;SDS_P2;PMS_P1;PMS_P2;Temp;Humidity;BMP_temperature;BMP_pressure;BME280_temperature;BME280_humidity;BME280_pressure;Samples;Min_cycle;Max_cycle;Signal;HPM_P1;HPM_P2
2020/12/19 00:00:54;;;;;;;12.68;6.65;;;9.90;77.40;;;;;;4999761;28;20191;-95
2020/12/19 00:03:22;;;;;;;12.37;8.07;;;10.00;77.90;;;;;;5000793;28;20194;-95
2020/12/19 00:05:48;;;;;;;8.40;6.95;;;9.80;77.20;;;;;;5002488;28;20438;-94
2020/12/19 00:08:18;;;;;;;11.47;8.00;;;9.90;77.40;;;;;;5002823;28;20202;-95
2020/12/19 00:10:44;;;;;;;13.65;7.70;;;9.90;77.50;;;;;;5002594;28;20210;-95
2020/12/19 00:13:13;;;;;;;18.03;7.43;;;9.90;77.70;;;;;;5002757;28;20164;-95
2020/12/19 00:15:41;;;;;;;11.68;7.10;;;9.80;77.30;;;;;;5002709;28;20427;-94
2020/12/19 00:18:09;;;;;;;12.65;7.60;;;9.70;77.70;;;;;;5002828;28;20191;-95
2020/12/19 00:20:35;;;;;;;11.77;7.50;;;9.90;77.60;;;;;;5003109;28;20191;-95
2020/12/19 00:23:03;;;;;;;10.47;6.63;;;9.90;78.50;;;;;;5000049;28;20246;-95
2020/12/19 00:25:38;;;;;;;12.25;7.28;;;9.90;77.40;;;;;;5000796;28;20497;-95
2020/12/19 00:28:04;;;;;;;12.73;7.35;;;9.80;77.30;;;;;;5003087;28;20190;-95
2020/12/19 00:30:38;;;;;;;9.37;7.23;;;9.80;77.50;;;;;;5002953;28;20223;-94
2020/12/19 00:33:04;;;;;;;11.20;7.43;;;9.90;77.40;;;;;;5001324;28;20418;-95
2020/12/19 00:35:35;;;;;;;12.55;7.88;;;9.90;77.30;;;;;;5001987;28;20183;-94
2020/12/19 00:38:19;;;;;;;10.80;7.18;;;9.80;77.20;;;;;;5002734;28;20231;-96
2020/12/19 00:40:47;;;;;;;11.52;7.82;;;9.90;77.30;;;;;;5002872;28;20274;-94
2020/12/19 00:43:13;;;;;;;18.60;7.55;;;9.90;77.30;;;;;;5001429;28;20183;-95
2020/12/19 00:45:38;;;;;;;11.57;6.97;;;10.00;77.20;;;;;;5001194;28;20194;-95
2020/12/19 00:48:04;;;;;;;15.83;7.80;;;9.90;77.00;;;;;;5002908;28;20181;-96
2020/12/19 00:50:31;;;;;;;11.13;7.67;;;9.90;77.30;;;;;;5002531;28;20723;-96
2020/12/19 00:52:59;;;;;;;14.20;7.85;;;9.90;77.20;;;;;;5001369;28;20453;-94
2020/12/19 00:55:27;;;;;;;12.73;7.78;;;10.00;77.10;;;;;;4999960;28;20167;-94
2020/12/19 00:57:55;;;;;;;9.90;6.95;;;10.00;76.80;;;;;;4999545;28;20231;-94
2020/12/19 01:00:33;;;;;;;11.25;7.18;;;10.00;77.10;;;;;;5000024;28;20205;-94
2020/12/19 01:02:59;;;;;;;14.82;6.82;;;9.90;76.70;;;;;;5000387;28;20186;-94
2020/12/19 01:05:27;;;;;;;16.20;8.03;;;10.00;76.80;;;;;;5000968;28;20191;-94
2020/12/19 01:07:58;;;;;;;14.77;7.50;;;9.90;76.70;;;;;;4999436;28;20422;-95
2020/12/19 01:10:26;;;;;;;17.52;9.27;;;9.90;77.20;;;;;;4998940;28;20211;-95
2020/12/19 01:12:52;;;;;;;16.52;10.30;;;10.00;77.00;;;;;;4998812;28;20171;-95
2020/12/19 01:15:17;;;;;;;15.60;9.33;;;9.80;76.70;;;;;;4993816;28;20658;-94
2020/12/19 01:17:43;;;;;;;13.10;8.50;;;9.70;77.10;;;;;;4996373;28;20191;-95
2020/12/19 01:20:09;;;;;;;12.77;7.93;;;9.80;77.20;;;;;;4997586;28;20215;-96
2020/12/19 01:22:35;;;;;;;16.25;9.02;;;9.90;77.10;;;;;;5002844;28;20167;-94
2020/12/19 01:25:01;;;;;;;12.50;7.70;;;10.00;76.80;;;;;;5002892;28;20217;-96
2020/12/19 01:27:26;;;;;;;18.07;8.33;;;10.00;76.70;;;;;;4986884;28;20175;-96
2020/12/19 01:29:52;;;;;;;12.30;8.50;;;9.90;76.80;;;;;;5002633;28;20445;-95
2020/12/19 01:32:18;;;;;;;10.10;7.37;;;9.90;76.50;;;;;;5002680;28;20430;-96
2020/12/19 01:34:43;;;;;;;11.53;7.57;;;9.80;76.40;;;;;;5002764;28;20167;-96
2020/12/19 01:37:09;;;;;;;10.87;7.80;;;9.80;76.20;;;;;;5004934;28;20166;-96
2020/12/19 01:39:35;;;;;;;12.47;8.40;;;9.90;76.20;;;;;;5008650;28;20270;-95
2020/12/19 01:42:01;;;;;;;12.70;8.60;;;9.80;76.30;;;;;;5008337;28;20239;-96
2020/12/19 01:44:26;;;;;;;11.93;8.93;;;9.70;76.90;;;;;;5007960;28;20226;-95
2020/12/19 01:46:58;;;;;;;14.00;7.63;;;9.80;76.90;;;;;;5007260;28;20179;-95
2020/12/19 01:49:26;;;;;;;32.45;9.32;;;9.80;76.60;;;;;;5006554;28;20186;-95
2020/12/19 01:52:00;;;;;;;18.52;8.30;;;9.80;76.40;;;;;;5006493;28;20222;-95
2020/12/19 01:54:28;;;;;;;14.45;8.32;;;9.70;76.60;;;;;;5008650;28;20177;-96
2020/12/19 01:56:55;;;;;;;10.15;6.50;;;9.60;77.00;;;;;;5008697;28;20156;-96
2020/12/19 01:59:22;;;;;;;11.85;7.28;;;9.60;77.10;;;;;;5007514;28;20187;-96
2020/12/19 02:01:53;;;;;;;12.10;7.38;;;9.70;77.30;;;;;;5007074;28;20190;-95
2020/12/19 02:04:20;;;;;;;16.15;8.40;;;9.60;76.90;;;;;;5006260;28;20171;-95
2020/12/19 02:06:53;;;;;;;18.48;9.13;;;9.60;77.20;;;;;;5006794;28;20186;-95
2020/12/19 02:09:21;;;;;;;15.40;8.73;;;9.50;77.40;;;;;;5007278;28;20199;-95
2020/12/19 02:11:47;;;;;;;14.25;9.45;;;9.60;77.70;;;;;;5008584;28;20207;-96
2020/12/19 02:14:14;;;;;;;14.38;7.70;;;9.70;77.80;;;;;;5008819;28;20234;-96
2020/12/19 02:17:01;;;;;;;18.13;8.02;;;9.50;77.60;;;;;;5008448;28;20184;-96
2020/12/19 02:19:28;;;;;;;12.60;8.25;;;9.50;77.80;;;;;;5008062;28;20186;-95
2020/12/19 02:21:54;;;;;;;13.60;7.45;;;9.50;77.70;;;;;;5007624;28;20238;-96
2020/12/19 02:24:20;;;;;;;10.38;8.00;;;9.70;77.70;;;;;;5008035;28;20179;-96
2020/12/19 02:26:50;;;;;;;18.23;8.38;;;9.50;77.50;;;;;;5007481;28;20191;-96
2020/12/19 02:29:17;;;;;;;12.25;8.63;;;9.50;77.80;;;;;;5007359;28;20179;-96
2020/12/19 02:31:44;;;;;;;13.85;7.85;;;9.50;77.90;;;;;;5007434;28;20211;-96
2020/12/19 02:34:10;;;;;;;10.30;7.15;;;9.50;77.60;;;;;;5007759;28;20160;-96
2020/12/19 02:36:37;;;;;;;15.47;7.83;;;9.50;78.10;;;;;;5007814;28;20247;-96
2020/12/19 02:39:05;;;;;;;13.43;7.15;;;9.50;77.70;;;;;;5008455;28;20430;-96
2020/12/19 02:41:39;;;;;;;15.45;9.18;;;9.40;77.80;;;;;;5007715;28;20188;-95
2020/12/19 02:44:07;;;;;;;12.50;7.93;;;9.50;77.80;;;;;;5007647;28;20206;-94
2020/12/19 02:46:33;;;;;;;14.00;8.70;;;9.60;77.50;;;;;;5006463;28;20179;-95
2020/12/19 02:48:59;;;;;;;14.33;8.53;;;9.50;77.70;;;;;;5004152;28;20205;-95
2020/12/19 02:51:25;;;;;;;16.53;8.50;;;9.70;77.80;;;;;;5003424;28;20466;-95
2020/12/19 02:53:51;;;;;;;12.63;8.37;;;9.70;77.50;;;;;;5004840;28;20490;-96
2020/12/19 02:56:17;;;;;;;17.10;9.20;;;9.60;76.60;;;;;;5005263;28;20176;-96
2020/12/19 02:58:43;;;;;;;11.97;7.23;;;9.70;76.80;;;;;;5005270;28;20172;-96
2020/12/19 03:01:08;;;;;;;13.70;8.90;;;9.70;76.60;;;;;;5005053;28;20156;-96
2020/12/19 03:03:34;;;;;;;13.27;8.83;;;9.30;76.50;;;;;;5004208;28;20186;-96
2020/12/19 03:06:00;;;;;;;14.60;8.70;;;9.60;76.60;;;;;;5004572;28;20174;-96
2020/12/19 03:08:25;;;;;;;14.10;8.10;;;9.50;76.50;;;;;;5004336;28;20433;-95
2020/12/19 03:10:51;;;;;;;12.93;8.03;;;9.50;76.80;;;;;;5003970;28;20226;-94
2020/12/19 03:13:17;;;;;;;19.50;10.07;;;9.50;76.80;;;;;;5003962;28;20187;-96
2020/12/19 03:15:43;;;;;;;14.00;9.33;;;9.60;76.80;;;;;;5004207;28;20455;-96
2020/12/19 03:18:08;;;;;;;19.50;11.00;;;9.50;76.70;;;;;;5003984;28;20266;-94
2020/12/19 03:20:34;;;;;;;21.40;13.57;;;9.40;76.60;;;;;;5002865;28;20195;-96
2020/12/19 03:23:00;;;;;;;22.97;14.90;;;9.50;76.80;;;;;;5003629;28;20178;-95
2020/12/19 03:25:26;;;;;;;27.93;15.63;;;9.40;77.00;;;;;;5004938;28;20410;-96
2020/12/19 03:27:53;;;;;;;30.83;17.27;;;9.30;77.00;;;;;;5004909;28;20154;-96
2020/12/19 03:30:19;;;;;;;33.20;16.48;;;9.40;77.10;;;;;;5004545;28;20206;-94
2020/12/19 03:32:45;;;;;;;26.45;16.13;;;9.20;77.20;;;;;;5004897;28;20227;-96
2020/12/19 03:35:11;;;;;;;25.10;14.25;;;9.20;77.40;;;;;;5004630;28;20215;-96
2020/12/19 03:37:37;;;;;;;24.40;14.03;;;9.30;77.30;;;;;;5004635;28;20171;-96
2020/12/19 03:40:03;;;;;;;28.33;12.47;;;9.40;77.30;;;;;;5004608;28;20184;-96
2020/12/19 03:42:29;;;;;;;17.45;11.20;;;9.40;77.00;;;;;;5004453;28;20179;-91
2020/12/19 03:44:55;;;;;;;20.17;11.70;;;9.30;76.90;;;;;;5004664;28;20183;-96
2020/12/19 03:47:21;;;;;;;18.80;10.43;;;9.40;77.00;;;;;;5004319;28;20183;-96
2020/12/19 03:49:47;;;;;;;18.70;11.73;;;9.40;76.90;;;;;;5004365;28;20250;-96
2020/12/19 03:52:12;;;;;;;13.37;8.50;;;9.50;77.00;;;;;;5004291;28;20210;-96
2020/12/19 03:54:39;;;;;;;14.83;9.10;;;9.40;76.60;;;;;;5004419;28;20415;-96
2020/12/19 03:57:04;;;;;;;15.95;9.43;;;9.30;76.60;;;;;;5004248;28;20166;-96
2020/12/19 03:59:30;;;;;;;17.50;9.63;;;9.30;76.90;;;;;;5004101;28;20246;-96
2020/12/19 04:01:56;;;;;;;12.30;8.37;;;9.20;76.90;;;;;;5003973;28;20201;-96
2020/12/19 04:04:21;;;;;;;13.97;10.17;;;9.30;77.10;;;;;;5004058;28;20175;-96
2020/12/19 04:06:47;;;;;;;12.97;9.10;;;9.30;77.00;;;;;;5004049;28;20243;-96
2020/12/19 04:09:13;;;;;;;13.67;8.00;;;9.30;76.90;;;;;;5003979;28;20445;-95
2020/12/19 04:11:39;;;;;;;14.17;8.13;;;9.30;77.20;;;;;;5003820;28;20206;-96
2020/12/19 04:14:04;;;;;;;19.30;8.37;;;9.40;77.00;;;;;;5001781;28;20167;-95
2020/12/19 04:16:30;;;;;;;12.20;7.60;;;9.30;77.00;;;;;;5002231;28;20242;-96
2020/12/19 04:18:56;;;;;;;16.00;8.73;;;9.40;77.20;;;;;;5003727;28;20231;-96
2020/12/19 04:21:21;;;;;;;18.20;8.43;;;9.50;77.20;;;;;;5003864;28;20194;-96
2020/12/19 04:23:47;;;;;;;13.50;7.40;;;9.60;76.90;;;;;;5003328;28;20152;-94
2020/12/19 04:26:16;;;;;;;13.00;8.00;;;9.40;76.30;;;;;;5001621;28;20438;-94
2020/12/19 04:28:42;;;;;;;11.70;7.80;;;9.40;76.20;;;;;;5001931;28;20167;-96
2020/12/19 04:31:07;;;;;;;12.70;7.53;;;9.40;76.50;;;;;;5003265;28;20218;-95
2020/12/19 04:33:33;;;;;;;11.23;7.30;;;9.50;76.60;;;;;;5001592;28;20171;-94
2020/12/19 04:35:59;;;;;;;15.17;7.70;;;9.50;76.60;;;;;;5000404;28;20183;-94
2020/12/19 04:38:24;;;;;;;10.73;7.20;;;9.50;76.50;;;;;;4998129;28;20250;-95
2020/12/19 04:40:50;;;;;;;11.70;7.67;;;9.60;76.40;;;;;;4999104;28;20276;-94
2020/12/19 04:43:18;;;;;;;10.13;7.27;;;9.50;76.30;;;;;;5000523;28;20275;-95
2020/12/19 04:45:45;;;;;;;15.98;8.70;;;9.50;76.40;;;;;;4998197;28;20180;-95
2020/12/19 04:48:11;;;;;;;9.50;7.15;;;9.70;76.60;;;;;;5000016;28;20188;-94
2020/12/19 04:50:39;;;;;;;11.83;7.93;;;9.60;76.40;;;;;;4999521;28;20206;-94
2020/12/19 04:53:16;;;;;;;11.57;7.03;;;9.70;76.70;;;;;;4999399;28;20187;-95
2020/12/19 04:55:43;;;;;;;18.42;8.10;;;9.60;76.50;;;;;;5001184;28;20183;-94
2020/12/19 04:58:14;;;;;;;12.07;7.47;;;9.60;76.70;;;;;;5003328;28;20171;-95
2020/12/19 05:00:41;;;;;;;13.55;7.95;;;9.50;77.10;;;;;;5002773;28;20187;-96
2020/12/19 05:03:07;;;;;;;11.73;7.57;;;9.40;77.20;;;;;;5002544;28;20179;-94
2020/12/19 05:05:36;;;;;;;13.50;7.38;;;9.50;77.30;;;;;;4997886;28;20180;-94
2020/12/19 05:08:01;;;;;;;12.18;8.18;;;9.40;77.40;;;;;;4996919;28;20183;-93
2020/12/19 05:10:28;;;;;;;20.23;9.50;;;9.40;78.00;;;;;;4998717;28;20214;-92
2020/12/19 05:12:57;;;;;;;11.95;8.13;;;9.50;78.20;;;;;;4997285;28;20442;-93
2020/12/19 05:15:22;;;;;;;9.60;7.00;;;9.50;78.10;;;;;;4997850;28;20168;-94
2020/12/19 05:17:53;;;;;;;11.98;7.43;;;9.50;78.40;;;;;;4997265;28;20250;-94
2020/12/19 05:20:25;;;;;;;14.75;7.75;;;9.40;78.40;;;;;;4996923;28;20206;-94
2020/12/19 05:22:52;;;;;;;13.75;8.52;;;9.50;78.60;;;;;;4996844;28;20174;-94
2020/12/19 05:25:20;;;;;;;15.27;9.23;;;9.60;78.30;;;;;;5001952;28;20211;-95
2020/12/19 05:27:47;;;;;;;17.27;8.80;;;9.60;78.60;;;;;;4998231;28;20187;-95
2020/12/19 05:30:18;;;;;;;18.38;9.02;;;9.70;78.60;;;;;;4997310;28;20219;-93
2020/12/19 05:32:50;;;;;;;13.57;8.20;;;9.60;78.70;;;;;;4999226;28;20178;-93
2020/12/19 05:35:17;;;;;;;14.50;8.98;;;9.60;78.90;;;;;;4998782;28;20316;-94
2020/12/19 05:37:44;;;;;;;19.70;9.45;;;9.60;79.00;;;;;;4998884;28;20195;-94
2020/12/19 05:40:13;;;;;;;15.85;8.77;;;9.60;79.10;;;;;;4998954;28;20210;-94
2020/12/19 05:42:40;;;;;;;14.20;8.77;;;9.70;79.30;;;;;;4999512;28;20191;-94
2020/12/19 05:45:17;;;;;;;17.23;10.02;;;9.70;79.40;;;;;;4998938;28;20196;-94
2020/12/19 05:47:42;;;;;;;13.25;9.07;;;9.80;79.20;;;;;;4997039;28;20231;-94
2020/12/19 05:50:09;;;;;;;18.77;10.13;;;10.00;79.20;;;;;;4995753;28;20206;-94
2020/12/19 05:52:39;;;;;;;17.33;9.40;;;9.90;78.90;;;;;;4996154;28;20179;-93
2020/12/19 05:55:16;;;;;;;16.98;9.23;;;10.00;78.50;;;;;;5000787;28;20152;-95
2020/12/19 05:57:43;;;;;;;21.35;10.57;;;10.00;78.40;;;;;;4997872;28;20159;-95
2020/12/19 06:00:12;;;;;;;15.23;9.18;;;10.00;78.80;;;;;;4995738;28;20206;-95
2020/12/19 06:02:39;;;;;;;26.38;10.48;;;10.20;78.70;;;;;;4998312;28;20227;-95
2020/12/19 06:05:07;;;;;;;16.48;10.77;;;10.20;78.60;;;;;;4994385;28;20186;-94
2020/12/19 06:07:38;;;;;;;17.00;10.15;;;10.30;78.40;;;;;;4994103;28;20216;-95
2020/12/19 06:10:09;;;;;;;21.20;10.50;;;10.20;78.30;;;;;;4995023;28;20219;-95
2020/12/19 06:12:47;;;;;;;23.17;10.95;;;10.10;78.40;;;;;;4996998;28;20162;-95
2020/12/19 06:15:22;;;;;;;19.00;11.40;;;10.10;78.50;;;;;;4998598;28;20192;-95
2020/12/19 06:17:55;;;;;;;19.02;10.73;;;10.20;78.60;;;;;;5000932;28;20148;-94
2020/12/19 06:20:22;;;;;;;16.40;9.32;;;10.20;78.80;;;;;;5000328;28;20215;-95
2020/12/19 06:22:48;;;;;;;22.70;11.35;;;10.20;79.00;;;;;;4997184;28;20179;-95
2020/12/19 06:25:43;;;;;;;18.40;11.30;;;10.10;78.70;;;;;;5001395;28;20278;-95
2020/12/19 06:28:10;;;;;;;20.30;11.27;;;10.10;79.00;;;;;;5001461;28;20894;-95
2020/12/19 06:30:37;;;;;;;20.60;11.23;;;10.00;79.10;;;;;;5001968;28;20187;-95
2020/12/19 06:33:11;;;;;;;14.25;9.75;;;10.00;79.50;;;;;;5002596;28;20176;-96
2020/12/19 06:35:37;;;;;;;22.60;12.63;;;10.00;79.70;;;;;;5002232;28;20183;-95
2020/12/19 06:38:03;;;;;;;17.10;10.68;;;10.10;80.00;;;;;;4999895;28;20206;-94
2020/12/19 06:40:38;;;;;;;18.23;11.90;;;10.00;79.90;;;;;;5002311;28;20243;-94
2020/12/19 06:43:14;;;;;;;19.95;10.15;;;10.00;80.00;;;;;;5003778;28;20170;-95
2020/12/19 06:45:41;;;;;;;21.45;10.63;;;10.10;80.20;;;;;;5003097;28;20151;-94
2020/12/19 06:48:33;;;;;;;22.08;11.00;;;10.10;80.30;;;;;;5003157;28;20182;-95
2020/12/19 06:51:04;;;;;;;18.75;10.13;;;10.10;80.10;;;;;;4993316;28;20199;-94
2020/12/19 06:53:31;;;;;;;17.02;10.20;;;10.20;79.90;;;;;;5000997;28;20175;-95
2020/12/19 06:55:58;;;;;;;21.75;10.23;;;10.20;79.70;;;;;;5000530;28;20184;-95
2020/12/19 06:58:36;;;;;;;20.23;10.55;;;10.20;79.60;;;;;;4999630;28;20187;-95
2020/12/19 07:01:25;;;;;;;20.20;11.35;;;10.30;79.70;;;;;;5004586;28;20186;-94
2020/12/19 07:03:51;;;;;;;16.00;9.27;;;10.30;79.40;;;;;;5005266;28;20168;-96
2020/12/19 07:06:16;;;;;;;18.53;10.10;;;10.40;79.40;;;;;;5004770;28;20175;-95
2020/12/19 07:08:43;;;;;;;19.40;10.83;;;10.50;79.30;;;;;;5004711;28;20170;-95
2020/12/19 07:11:32;;;;;;;20.17;10.38;;;10.50;79.30;;;;;;5004178;28;20203;-95
2020/12/19 07:14:00;;;;;;;18.52;10.45;;;10.50;79.00;;;;;;4992272;28;20167;-95
2020/12/19 07:16:45;;;;;;;19.20;10.15;;;10.40;79.10;;;;;;5004772;28;20167;-96
2020/12/19 07:19:29;;;;;;;17.73;10.02;;;10.40;79.40;;;;;;5002488;28;20215;-95
2020/12/19 07:21:57;;;;;;;17.20;9.65;;;10.20;79.60;;;;;;5001582;28;20180;-95
2020/12/19 07:24:24;;;;;;;15.20;9.35;;;10.20;79.70;;;;;;5001507;28;20190;-95
2020/12/19 07:26:51;;;;;;;18.05;9.55;;;10.30;79.60;;;;;;4999790;28;20195;-95
2020/12/19 07:29:26;;;;;;;17.75;10.70;;;10.20;79.70;;;;;;4999172;28;20267;-95
2020/12/19 07:31:54;;;;;;;20.17;9.23;;;10.30;79.90;;;;;;4998961;28;20191;-94
2020/12/19 07:34:21;;;;;;;28.75;9.25;;;10.30;79.50;;;;;;4994219;28;20175;-94
2020/12/19 07:36:49;;;;;;;18.45;9.93;;;10.30;79.70;;;;;;4994564;28;20175;-93
2020/12/19 07:39:17;;;;;;;17.27;8.43;;;10.20;79.70;;;;;;4993266;28;20237;-95
2020/12/19 07:41:44;;;;;;;18.88;9.70;;;10.30;79.80;;;;;;4993115;28;20182;-94
2020/12/19 07:44:16;;;;;;;17.45;9.05;;;10.30;79.70;;;;;;4994340;28;20246;-94
2020/12/19 07:46:56;;;;;;;14.00;9.52;;;10.40;79.50;;;;;;4992796;28;20179;-93
2020/12/19 07:49:36;;;;;;;13.75;8.00;;;10.40;79.20;;;;;;4993083;28;20214;-94
2020/12/19 07:52:07;;;;;;;17.17;8.98;;;10.50;78.90;;;;;;4992702;28;20203;-94
2020/12/19 07:54:34;;;;;;;15.80;8.70;;;10.50;79.00;;;;;;4994826;28;20230;-94
2020/12/19 07:57:00;;;;;;;14.68;9.27;;;10.50;78.90;;;;;;4997892;28;20242;-94
2020/12/19 07:59:27;;;;;;;17.98;10.75;;;10.70;78.60;;;;;;4999144;28;20207;-94
2020/12/19 08:01:54;;;;;;;15.60;7.45;;;10.70;78.00;;;;;;5002114;28;20199;-94
2020/12/19 08:04:20;;;;;;;12.00;8.20;;;10.80;77.90;;;;;;5003252;28;20175;-96
2020/12/19 08:06:47;;;;;;;15.73;8.30;;;10.80;78.50;;;;;;5004122;28;20174;-94
2020/12/19 08:09:18;;;;;;;15.80;8.30;;;10.90;77.60;;;;;;5003926;28;20175;-94
2020/12/19 08:11:45;;;;;;;18.50;8.50;;;10.90;77.50;;;;;;5003869;28;20270;-94
2020/12/19 08:14:11;;;;;;;16.23;8.50;;;10.90;77.30;;;;;;5004075;28;20211;-95
2020/12/19 08:16:37;;;;;;;10.63;7.60;;;10.90;77.40;;;;;;5003814;28;20178;-95
2020/12/19 08:19:05;;;;;;;16.58;7.90;;;10.90;77.40;;;;;;5020284;28;20446;-95
2020/12/19 08:21:31;;;;;;;11.48;7.80;;;11.00;77.30;;;;;;5003659;28;20329;-96
2020/12/19 08:23:57;;;;;;;13.97;7.50;;;10.90;77.30;;;;;;5003511;28;20166;-95
2020/12/19 08:26:23;;;;;;;10.70;7.32;;;10.90;77.30;;;;;;5003224;28;20442;-95
2020/12/19 08:29:06;;;;;;;12.30;8.07;;;10.90;77.40;;;;;;5003464;28;20184;-96
2020/12/19 08:31:36;;;;;;;12.90;7.47;;;11.00;77.00;;;;;;5003394;28;20199;-96
2020/12/19 08:34:12;;;;;;;9.98;6.95;;;11.20;76.70;;;;;;5003217;28;20183;-95
2020/12/19 08:36:46;;;;;;;10.63;6.82;;;11.20;76.50;;;;;;5003290;28;20220;-93
2020/12/19 08:39:13;;;;;;;10.05;6.63;;;11.20;76.50;;;;;;5003034;28;20235;-95
2020/12/19 08:41:39;;;;;;;10.02;5.75;;;11.20;76.10;;;;;;5003093;28;20174;-96
2020/12/19 08:44:05;;;;;;;8.77;6.73;;;11.10;76.00;;;;;;5003131;28;20233;-95
2020/12/19 08:46:31;;;;;;;8.73;6.50;;;11.20;75.80;;;;;;5002038;28;20183;-96
2020/12/19 08:49:03;;;;;;;10.90;6.67;;;11.30;76.00;;;;;;5001635;28;20457;-96
2020/12/19 08:51:29;;;;;;;10.55;6.22;;;11.50;75.20;;;;;;5001877;28;20298;-96
2020/12/19 08:54:12;;;;;;;11.57;6.47;;;11.50;75.10;;;;;;5001414;28;20172;-95
2020/12/19 08:56:38;;;;;;;8.55;5.95;;;11.60;74.70;;;;;;5001592;28;20441;-95
2020/12/19 08:59:03;;;;;;;9.83;5.93;;;11.70;74.40;;;;;;5002870;28;20188;-95
2020/12/19 09:01:32;;;;;;;9.70;5.80;;;11.70;74.40;;;;;;5002861;28;20172;-96
2020/12/19 09:04:09;;;;;;;8.85;6.20;;;11.80;74.20;;;;;;5002712;28;20172;-96
2020/12/19 09:06:51;;;;;;;8.77;5.88;;;11.80;73.90;;;;;;5003000;28;20167;-96
2020/12/19 09:09:18;;;;;;;6.97;5.13;;;11.80;73.70;;;;;;5002898;28;20183;-95
2020/12/19 09:11:44;;;;;;;10.15;5.70;;;11.80;73.70;;;;;;5002583;28;20222;-96
2020/12/19 09:14:11;;;;;;;7.40;5.53;;;11.70;74.80;;;;;;5001988;28;20159;-95
2020/12/19 09:16:53;;;;;;;9.40;5.30;;;12.00;73.60;;;;;;5001941;28;20423;-96
2020/12/19 09:19:19;;;;;;;9.77;5.20;;;12.10;73.00;;;;;;5000768;28;20175;-96
2020/12/19 09:21:58;;;;;;;8.07;5.63;;;12.10;73.10;;;;;;5000476;28;20186;-96
2020/12/19 09:24:24;;;;;;;7.85;5.65;;;11.90;72.80;;;;;;5001198;28;20195;-95
2020/12/19 09:26:50;;;;;;;11.68;5.20;;;11.70;73.20;;;;;;5001390;28;20208;-96
2020/12/19 09:29:16;;;;;;;5.63;4.97;;;11.90;73.50;;;;;;5001818;28;20243;-95
2020/12/19 09:31:42;;;;;;;8.13;4.80;;;12.00;73.30;;;;;;5001492;28;20478;-95
2020/12/19 09:34:08;;;;;;;7.53;5.82;;;11.80;72.90;;;;;;5001467;28;20167;-94
2020/12/19 09:36:34;;;;;;;6.20;5.00;;;11.90;73.20;;;;;;5000417;28;20176;-94
2020/12/19 09:39:00;;;;;;;7.27;4.80;;;12.00;72.90;;;;;;4999731;28;20450;-94
2020/12/19 09:41:25;;;;;;;6.90;4.37;;;11.90;73.00;;;;;;5000648;28;20422;-94
2020/12/19 09:43:51;;;;;;;4.53;3.60;;;11.90;73.00;;;;;;4996382;28;20439;-94
2020/12/19 09:46:17;;;;;;;8.30;4.23;;;12.00;72.80;;;;;;5000135;28;20519;-94
2020/12/19 09:48:43;;;;;;;9.73;4.47;;;12.00;72.70;;;;;;5001660;28;20395;-94
2020/12/19 09:51:09;;;;;;;6.03;4.82;;;12.10;73.50;;;;;;5002523;28;20494;-95
2020/12/19 09:53:35;;;;;;;7.10;4.27;;;12.00;72.50;;;;;;5002594;28;20175;-95
2020/12/19 09:56:01;;;;;;;4.00;3.67;;;12.00;72.90;;;;;;5002360;28;20449;-95
2020/12/19 09:58:27;;;;;;;5.73;3.80;;;12.10;72.60;;;;;;5003480;28;20179;-94
2020/12/19 10:00:53;;;;;;;7.83;4.83;;;12.20;72.20;;;;;;5004165;28;20437;-95
2020/12/19 10:03:19;;;;;;;6.00;4.00;;;12.30;72.10;;;;;;5005379;28;20437;-94
2020/12/19 10:05:45;;;;;;;10.47;4.13;;;12.40;71.70;;;;;;5004829;28;20180;-95
2020/12/19 10:08:12;;;;;;;6.47;4.43;;;12.50;71.80;;;;;;5004319;28;20430;-96
2020/12/19 10:10:43;;;;;;;8.77;3.65;;;12.50;70.90;;;;;;5010584;28;20460;-95
2020/12/19 10:13:09;;;;;;;6.97;3.97;;;12.40;70.70;;;;;;5006467;28;20182;-95
2020/12/19 10:15:35;;;;;;;5.23;3.20;;;12.60;70.60;;;;;;5003293;28;20174;-95
2020/12/19 10:18:01;;;;;;;3.83;3.33;;;12.50;70.60;;;;;;5016020;28;20429;-95
2020/12/19 10:20:26;;;;;;;6.67;3.10;;;12.40;70.80;;;;;;5004680;28;20266;-95
2020/12/19 10:22:52;;;;;;;5.53;3.50;;;12.60;70.50;;;;;;5000082;28;20190;-95
2020/12/19 10:25:18;;;;;;;8.93;3.47;;;12.70;70.10;;;;;;5002634;28;20482;-95
2020/12/19 10:27:44;;;;;;;7.50;3.53;;;12.90;69.70;;;;;;5000733;28;20179;-95
2020/12/19 10:30:10;;;;;;;4.93;3.40;;;13.00;69.40;;;;;;5001479;28;20203;-96
2020/12/19 10:32:35;;;;;;;5.83;4.77;;;13.10;69.00;;;;;;5005351;28;20174;-94
2020/12/19 10:35:06;;;;;;;6.37;3.20;;;13.00;68.80;;;;;;5005582;28;20430;-94
2020/12/19 10:37:35;;;;;;;3.55;3.17;;;13.10;68.80;;;;;;5005004;28;20454;-94
2020/12/19 10:40:04;;;;;;;4.93;2.97;;;13.10;68.40;;;;;;5004206;28;20191;-95
2020/12/19 10:42:31;;;;;;;5.28;3.65;;;13.00;68.50;;;;;;5003332;28;20206;-94
2020/12/19 10:44:57;;;;;;;4.63;4.07;;;13.10;68.40;;;;;;5016024;28;20211;-94
2020/12/19 10:47:23;;;;;;;4.80;3.13;;;13.20;68.40;;;;;;5017072;28;20195;-95
2020/12/19 10:49:51;;;;;;;6.60;3.97;;;13.20;68.20;;;;;;5000107;28;20203;-96
2020/12/19 10:52:17;;;;;;;5.28;3.38;;;13.10;68.30;;;;;;5000202;28;20243;-94
2020/12/19 10:54:43;;;;;;;6.75;4.22;;;13.50;68.10;;;;;;5001732;28;20182;-95
2020/12/19 10:57:09;;;;;;;10.87;3.07;;;13.40;67.70;;;;;;5014829;28;20175;-95
2020/12/19 10:59:34;;;;;;;5.37;3.40;;;13.50;67.80;;;;;;5018013;28;20226;-94
2020/12/19 11:02:00;;;;;;;4.43;3.33;;;13.50;67.60;;;;;;5013672;28;20203;-94
2020/12/19 11:04:26;;;;;;;3.77;3.13;;;13.80;67.20;;;;;;5015946;28;20411;-95
2020/12/19 11:06:52;;;;;;;3.10;2.90;;;13.50;67.40;;;;;;5015686;28;20183;-94
2020/12/19 11:09:18;;;;;;;3.25;2.95;;;13.60;67.70;;;;;;5013485;28;20465;-94
2020/12/19 11:11:54;;;;;;;3.43;3.13;;;13.80;67.30;;;;;;5014477;28;20210;-95
2020/12/19 11:14:21;;;;;;;5.82;4.30;;;13.60;67.10;;;;;;4996989;28;20422;-95
2020/12/19 11:16:47;;;;;;;4.60;3.65;;;13.80;67.30;;;;;;4995408;28;20207;-95
2020/12/19 11:19:13;;;;;;;4.32;3.17;;;14.00;67.70;;;;;;4997876;28;20191;-95
2020/12/19 11:21:46;;;;;;;4.03;3.10;;;13.60;68.00;;;;;;5013304;28;20207;-95
2020/12/19 11:24:12;;;;;;;4.18;3.35;;;13.40;68.30;;;;;;4997126;28;20183;-95
2020/12/19 11:26:40;;;;;;;4.20;3.10;;;13.40;69.40;;;;;;4995087;28;20190;-95
2020/12/19 11:29:07;;;;;;;4.03;3.25;;;13.60;69.60;;;;;;4989236;28;20209;-94
2020/12/19 11:31:34;;;;;;;3.60;3.30;;;13.50;69.40;;;;;;4995166;28;20210;-95
2020/12/19 11:34:00;;;;;;;4.07;3.67;;;13.60;69.60;;;;;;5016752;28;20175;-95
2020/12/19 11:36:26;;;;;;;7.50;3.20;;;13.70;70.00;;;;;;5001679;28;20183;-95
2020/12/19 11:38:51;;;;;;;5.00;3.27;;;13.50;70.00;;;;;;5018130;28;20414;-94
2020/12/19 11:41:25;;;;;;;4.10;3.70;;;13.60;70.30;;;;;;5014721;28;20422;-94
2020/12/19 11:43:51;;;;;;;3.63;3.33;;;13.50;70.70;;;;;;4998742;28;20179;-93
2020/12/19 11:46:17;;;;;;;9.07;2.95;;;13.70;70.60;;;;;;5018662;28;20171;-93
2020/12/19 11:48:44;;;;;;;8.68;4.60;;;13.60;70.20;;;;;;5003377;28;20171;-95
2020/12/19 11:51:10;;;;;;;7.30;3.28;;;13.80;70.20;;;;;;5003656;28;20211;-94
2020/12/19 11:53:36;;;;;;;6.25;3.38;;;13.60;70.10;;;;;;5014408;28;20194;-93
2020/12/19 11:56:04;;;;;;;6.00;4.07;;;13.70;70.60;;;;;;5013889;28;20205;-94
2020/12/19 11:58:31;;;;;;;2.85;2.65;;;13.80;70.60;;;;;;4997760;28;20171;-94
2020/12/19 12:00:56;;;;;;;3.97;3.60;;;13.70;70.70;;;;;;4997418;28;20223;-94
2020/12/19 12:03:22;;;;;;;3.93;3.30;;;13.70;71.60;;;;;;5000240;28;20265;-95
2020/12/19 12:05:48;;;;;;;4.97;3.20;;;13.50;71.90;;;;;;5001584;28;20230;-94
2020/12/19 12:08:14;;;;;;;3.90;3.27;;;13.20;72.90;;;;;;4996591;28;20832;-94
2020/12/19 12:10:40;;;;;;;7.95;3.88;;;13.50;73.70;;;;;;4996804;28;20218;-95
2020/12/19 12:13:06;;;;;;;6.03;4.77;;;13.30;73.20;;;;;;4992506;28;20196;-93
2020/12/19 12:15:34;;;;;;;9.23;3.53;;;13.30;73.70;;;;;;4997202;28;20194;-93
2020/12/19 12:18:00;;;;;;;8.02;4.00;;;13.40;73.50;;;;;;5017169;28;20203;-94
2020/12/19 12:20:27;;;;;;;4.67;3.70;;;13.40;73.80;;;;;;5003248;28;20195;-95
2020/12/19 12:22:53;;;;;;;11.20;3.40;;;13.20;73.90;;;;;;5003225;28;20426;-95
2020/12/19 12:25:19;;;;;;;6.13;3.42;;;13.20;74.20;;;;;;5019458;28;20216;-94
2020/12/19 12:27:45;;;;;;;8.75;3.47;;;12.90;75.10;;;;;;5019409;28;20163;-94
2020/12/19 12:30:11;;;;;;;3.70;3.33;;;13.00;75.40;;;;;;5019054;28;20187;-96
2020/12/19 12:32:37;;;;;;;9.90;2.70;;;12.90;75.70;;;;;;5019110;28;20434;-93
2020/12/19 12:35:03;;;;;;;3.72;3.40;;;12.80;76.20;;;;;;5019173;28;20434;-95
2020/12/19 12:37:29;;;;;;;4.43;3.40;;;12.80;76.50;;;;;;5002941;28;20182;-95
2020/12/19 12:39:55;;;;;;;4.13;3.70;;;12.90;77.10;;;;;;5018959;28;20204;-95
2020/12/19 12:42:23;;;;;;;3.20;2.80;;;13.00;77.10;;;;;;5019000;28;20431;-95
2020/12/19 12:44:50;;;;;;;7.07;3.53;;;13.10;76.70;;;;;;5002877;28;20195;-93
2020/12/19 12:47:16;;;;;;;5.35;3.88;;;13.30;76.50;;;;;;4986364;28;20174;-94